Time;durP1;ratioP1;P1;durP2;ratioP2;P2;SDS_P1;SDS_P2;PMS_P1;PMS_P2;Temp;Humidity;BMP_temperature;BMP_pressure;BME280_temperature;BME280_humidity;BME280_pressure;Samples;Min_cycle;Max_cycle;Signal;HPM_P1;HPM_P2
2021/01/24 07:41:52;;;;;;;14.00;10.23;;;6.50;93.80;;;;;;4864003;28;20472;-48
2021/01/24 07:44:18;;;;;;;12.17;9.37;;;6.50;94.50;;;;;;4966827;28;20049;-50
2021/01/24 07:46:44;;;;;;;11.17;9.10;;;6.50;93.60;;;;;;4955705;28;20404;-50
2021/01/24 07:49:09;;;;;;;12.83;9.20;;;6.60;93.90;;;;;;4962960;28;20051;-49
2021/01/24 07:51:36;;;;;;;9.20;8.00;;;6.60;93.70;;;;;;4954677;28;20044;-47
2021/01/24 07:54:02;;;;;;;9.40;7.40;;;6.60;93.70;;;;;;4958072;28;20050;-47
2021/01/24 07:56:28;;;;;;;8.97;7.37;;;6.70;93.80;;;;;;4957361;28;20137;-47
2021/01/24 07:58:54;;;;;;;8.47;7.40;;;6.80;93.70;;;;;;4956786;28;20117;-48
2021/01/24 08:01:21;;;;;;;14.30;12.27;;;6.60;93.20;;;;;;4960553;28;20114;-51
2021/01/24 08:03:50;;;;;;;15.10;13.40;;;6.50;93.90;;;;;;4957982;28;20043;-47
2021/01/24 08:06:16;;;;;;;17.97;14.10;;;6.50;94.20;;;;;;4961765;28;20047;-47
2021/01/24 08:08:43;;;;;;;18.50;15.13;;;6.40;94.00;;;;;;4959022;28;20043;-50
2021/01/24 08:11:09;;;;;;;16.10;13.60;;;6.30;94.10;;;;;;4963446;28;20041;-49
2021/01/24 08:13:37;;;;;;;15.77;14.17;;;6.10;94.60;;;;;;4959128;28;20043;-50
2021/01/24 08:16:20;;;;;;;15.23;13.63;;;6.10;94.20;;;;;;4965659;28;20376;-47
2021/01/24 08:18:48;;;;;;;17.87;14.13;;;5.90;94.10;;;;;;4958890;28;20054;-49
2021/01/24 08:21:16;;;;;;;16.07;14.03;;;6.00;94.30;;;;;;4958172;28;20504;-47
2021/01/24 08:23:43;;;;;;;17.80;14.47;;;6.00;94.30;;;;;;4963423;28;20038;-50
2021/01/24 08:26:09;;;;;;;18.53;13.73;;;5.80;94.50;;;;;;4964420;28;20035;-50
2021/01/24 08:28:37;;;;;;;17.43;14.80;;;5.70;94.70;;;;;;4953955;28;20058;-49
2021/01/24 08:31:04;;;;;;;18.07;14.60;;;5.70;94.30;;;;;;4968244;28;20053;-48
2021/01/24 08:33:31;;;;;;;15.60;13.50;;;5.70;94.80;;;;;;4972649;28;21031;-52
2021/01/24 08:36:11;;;;;;;14.60;12.93;;;5.70;94.70;;;;;;4961990;28;20060;-50
2021/01/24 08:38:38;;;;;;;17.33;14.43;;;5.70;94.20;;;;;;4964696;28;20220;-52
2021/01/24 08:41:04;;;;;;;15.00;12.63;;;5.80;94.50;;;;;;4956939;28;20154;-50
2021/01/24 08:43:29;;;;;;;13.40;12.00;;;5.80;94.70;;;;;;4960167;28;20185;-48
2021/01/24 08:46:19;;;;;;;14.17;12.07;;;5.80;94.30;;;;;;4969241;28;20028;-49
2021/01/24 08:48:44;;;;;;;12.43;11.13;;;5.90;94.40;;;;;;4963475;28;20038;-47
2021/01/24 08:51:10;;;;;;;13.43;11.37;;;6.00;94.00;;;;;;4962519;28;20043;-47
2021/01/24 08:53:36;;;;;;;15.40;12.40;;;6.00;94.20;;;;;;4960792;28;20042;-49
2021/01/24 08:56:01;;;;;;;13.33;11.50;;;6.20;94.20;;;;;;4953230;28;20063;-47
2021/01/24 08:58:28;;;;;;;13.37;11.37;;;6.10;93.90;;;;;;4962160;28;20038;-54
2021/01/24 09:01:03;;;;;;;15.67;12.80;;;6.10;93.90;;;;;;4959029;28;20046;-48
2021/01/24 09:03:29;;;;;;;14.13;12.63;;;6.00;94.00;;;;;;4961543;28;20042;-50
2021/01/24 09:05:54;;;;;;;15.10;13.50;;;6.00;94.10;;;;;;4954604;28;20043;-48
2021/01/24 09:08:29;;;;;;;16.37;13.80;;;6.00;94.40;;;;;;4960920;28;20045;-48
2021/01/24 09:10:57;;;;;;;16.67;13.98;;;6.10;94.30;;;;;;4954247;28;20072;-49
2021/01/24 09:13:23;;;;;;;15.40;13.30;;;6.10;94.30;;;;;;4959145;28;20063;-51
2021/01/24 09:15:49;;;;;;;15.80;13.50;;;6.10;94.40;;;;;;4963213;28;20172;-49
2021/01/24 09:18:15;;;;;;;17.80;13.90;;;6.00;94.30;;;;;;4967078;28;20058;-53
2021/01/24 09:20:40;;;;;;;16.23;14.03;;;6.10;94.70;;;;;;4965178;28;20043;-47
2021/01/24 09:23:06;;;;;;;18.37;13.27;;;6.10;94.80;;;;;;4963034;28;20619;-47
2021/01/24 09:25:31;;;;;;;16.40;13.93;;;6.10;94.50;;;;;;4956762;28;20067;-47
2021/01/24 09:27:57;;;;;;;18.40;13.93;;;6.20;94.80;;;;;;4957196;28;20027;-50
2021/01/24 09:30:24;;;;;;;20.40;14.10;;;6.20;94.70;;;;;;4953065;28;20050;-48
2021/01/24 09:32:50;;;;;;;17.83;14.70;;;6.20;94.60;;;;;;4956465;28;20046;-52
2021/01/24 09:35:16;;;;;;;18.37;14.43;;;6.10;93.90;;;;;;4957442;28;20566;-48
2021/01/24 09:37:41;;;;;;;22.07;14.57;;;6.20;94.60;;;;;;4957298;28;20042;-57
2021/01/24 09:40:08;;;;;;;21.70;15.80;;;6.20;94.40;;;;;;4962244;28;20166;-49
2021/01/24 09:42:34;;;;;;;19.97;16.03;;;6.30;94.50;;;;;;4955101;28;20071;-48
2021/01/24 09:44:59;;;;;;;21.70;15.87;;;6.30;94.20;;;;;;4951299;28;20524;-48
2021/01/24 09:47:25;;;;;;;21.77;15.27;;;6.20;94.50;;;;;;4964324;28;20306;-50
2021/01/24 09:49:51;;;;;;;23.90;17.17;;;6.30;94.00;;;;;;4963701;28;20415;-51
2021/01/24 09:52:16;;;;;;;20.47;15.97;;;6.40;94.10;;;;;;4959954;28;20045;-49
2021/01/24 09:54:42;;;;;;;22.47;16.73;;;6.40;94.10;;;;;;4963123;28;20039;-50
2021/01/24 09:57:08;;;;;;;22.80;16.17;;;6.40;94.10;;;;;;4958140;28;20039;-49
2021/01/24 09:59:33;;;;;;;23.40;17.13;;;6.40;94.30;;;;;;4948902;28;20054;-51
2021/01/24 10:01:59;;;;;;;22.70;17.87;;;6.50;93.70;;;;;;4956655;28;20058;-51
2021/01/24 10:04:24;;;;;;;22.93;16.60;;;6.50;94.20;;;;;;4956584;28;20480;-48
2021/01/24 10:06:50;;;;;;;22.17;16.40;;;6.60;94.50;;;;;;4961461;28;20516;-47
2021/01/24 10:09:16;;;;;;;21.63;15.83;;;6.70;94.00;;;;;;4962215;28;20043;-48
2021/01/24 10:11:43;;;;;;;23.67;17.13;;;6.70;93.80;;;;;;4963432;28;20067;-48
2021/01/24 10:14:08;;;;;;;23.57;16.60;;;6.80;93.60;;;;;;4961367;28;20176;-48
2021/01/24 10:16:34;;;;;;;20.17;15.03;;;6.70;93.90;;;;;;4969470;28;20529;-49
2021/01/24 10:19:00;;;;;;;19.37;14.90;;;6.90;93.70;;;;;;4961180;28;20046;-50
2021/01/24 10:21:26;;;;;;;13.97;10.33;;;6.90;93.20;;;;;;4958892;28;20400;-53
2021/01/24 10:23:52;;;;;;;15.43;10.40;;;7.00;92.00;;;;;;4978339;28;20054;-49
2021/01/24 10:26:18;;;;;;;16.60;10.57;;;7.10;92.50;;;;;;4961642;28;20043;-51
2021/01/24 10:28:44;;;;;;;10.70;9.67;;;7.10;92.00;;;;;;4958604;28;20509;-53
2021/01/24 10:31:09;;;;;;;11.63;9.97;;;7.10;90.30;;;;;;4967035;28;20042;-52
2021/01/24 10:33:35;;;;;;;11.43;9.90;;;7.20;92.40;;;;;;4956620;28;20070;-53
2021/01/24 10:36:01;;;;;;;12.07;9.90;;;7.20;91.40;;;;;;4959274;28;20042;-50
2021/01/24 10:38:26;;;;;;;12.80;11.27;;;7.20;91.70;;;;;;4966036;28;20450;-49
2021/01/24 10:40:52;;;;;;;11.33;10.13;;;7.30;91.70;;;;;;4967217;28;20788;-53
2021/01/24 10:43:18;;;;;;;12.57;9.57;;;7.40;90.40;;;;;;4966205;28;20122;-54
2021/01/24 10:45:44;;;;;;;15.37;10.87;;;7.50;92.20;;;;;;4958352;28;20557;-51
2021/01/24 10:48:10;;;;;;;13.50;10.30;;;7.50;91.20;;;;;;4963194;28;20035;-51
2021/01/24 10:50:37;;;;;;;16.03;13.30;;;7.50;91.60;;;;;;4963109;28;20122;-50
2021/01/24 10:53:04;;;;;;;14.83;12.60;;;7.50;92.60;;;;;;4980532;28;20460;-49
2021/01/24 10:55:31;;;;;;;16.93;14.20;;;7.60;92.80;;;;;;4958819;28;20055;-50
2021/01/24 10:57:57;;;;;;;17.63;13.23;;;7.70;92.70;;;;;;4962098;28;20107;-50
2021/01/24 11:00:23;;;;;;;14.43;12.57;;;7.70;92.70;;;;;;4961962;28;20059;-52
2021/01/24 11:02:49;;;;;;;14.53;12.17;;;7.70;92.10;;;;;;4968359;28;20442;-51
2021/01/24 11:05:14;;;;;;;16.83;12.10;;;7.80;92.70;;;;;;4958629;28;20051;-54
2021/01/24 11:07:40;;;;;;;15.37;12.00;;;7.80;92.20;;;;;;4968468;28;20035;-50
2021/01/24 11:10:10;;;;;;;12.07;10.80;;;7.80;92.20;;;;;;4960119;28;20805;-49
2021/01/24 11:12:35;;;;;;;14.63;11.33;;;7.80;91.00;;;;;;4979809;28;20035;-52
2021/01/24 11:15:01;;;;;;;12.33;10.47;;;8.00;92.10;;;;;;4957801;28;20096;-52
2021/01/24 11:17:27;;;;;;;11.27;10.07;;;7.90;91.30;;;;;;4961224;28;20403;-49
2021/01/24 11:19:53;;;;;;;13.77;10.70;;;8.10;91.20;;;;;;4962259;28;20043;-51
2021/01/24 11:22:20;;;;;;;10.47;9.37;;;8.20;90.70;;;;;;4957811;28;20039;-49
2021/01/24 11:24:46;;;;;;;11.40;9.67;;;8.30;90.70;;;;;;4964320;28;20077;-52
2021/01/24 11:27:13;;;;;;;11.60;9.63;;;8.30;90.50;;;;;;4961047;28;20043;-49
2021/01/24 11:29:40;;;;;;;11.83;9.67;;;8.30;90.30;;;;;;4965722;28;20042;-52
2021/01/24 11:32:06;;;;;;;15.27;9.10;;;8.50;90.60;;;;;;4955316;28;20035;-53
2021/01/24 11:34:32;;;;;;;12.87;9.60;;;8.60;90.00;;;;;;4964535;28;20121;-51
2021/01/24 11:36:58;;;;;;;13.30;9.90;;;8.70;89.90;;;;;;4960993;28;20539;-51
2021/01/24 11:39:23;;;;;;;13.50;10.97;;;8.80;89.70;;;;;;4962368;28;20138;-55
2021/01/24 11:41:49;;;;;;;12.60;9.83;;;8.80;90.60;;;;;;4958680;28;20519;-53
2021/01/24 11:44:15;;;;;;;10.47;9.20;;;8.80;90.80;;;;;;4963433;28;21209;-51
2021/01/24 11:46:41;;;;;;;10.77;9.63;;;8.90;90.70;;;;;;4956195;28;20137;-51
2021/01/24 11:49:07;;;;;;;10.80;8.87;;;8.90;91.50;;;;;;4955013;28;20130;-54
2021/01/24 11:51:33;;;;;;;10.40;8.97;;;8.80;90.90;;;;;;4960455;28;20043;-52
2021/01/24 11:53:58;;;;;;;9.20;8.27;;;9.00;90.60;;;;;;4963428;28;20039;-54
2021/01/24 11:56:24;;;;;;;9.70;8.70;;;9.00;90.30;;;;;;4961899;28;20035;-53
2021/01/24 11:58:50;;;;;;;11.13;9.23;;;9.10;90.60;;;;;;4961379;28;20407;-54
2021/01/24 12:01:15;;;;;;;10.70;8.37;;;9.30;90.20;;;;;;4959990;28;20449;-54
2021/01/24 12:03:41;;;;;;;9.97;8.20;;;9.40;89.70;;;;;;4957902;28;20047;-52
2021/01/24 12:06:07;;;;;;;8.53;7.07;;;9.70;90.40;;;;;;4962578;28;20134;-53
2021/01/24 12:08:33;;;;;;;7.40;6.40;;;9.70;88.60;;;;;;4960053;28;20172;-55
2021/01/24 12:10:59;;;;;;;6.97;5.97;;;9.70;86.10;;;;;;4961387;28;20112;-53
2021/01/24 12:13:25;;;;;;;6.40;5.77;;;9.80;84.60;;;;;;4954646;28;20046;-53
2021/01/24 12:15:50;;;;;;;7.63;5.53;;;9.90;84.40;;;;;;4963606;28;20054;-54
2021/01/24 12:18:16;;;;;;;7.10;6.00;;;10.00;84.40;;;;;;4960313;28;20038;-54
2021/01/24 12:20:43;;;;;;;7.43;5.47;;;9.90;81.80;;;;;;4978318;28;20495;-53
2021/01/24 12:23:08;;;;;;;6.60;5.73;;;9.90;84.70;;;;;;4966241;28;20046;-53
2021/01/24 12:25:34;;;;;;;8.02;5.18;;;9.90;83.80;;;;;;4960172;28;20415;-51
2021/01/24 12:28:00;;;;;;;6.70;5.40;;;9.90;82.10;;;;;;4956866;28;20039;-54
2021/01/24 12:30:26;;;;;;;5.40;4.60;;;9.80;85.90;;;;;;4961441;28;20124;-53
2021/01/24 12:32:51;;;;;;;5.77;4.67;;;9.90;84.60;;;;;;4966036;28;20039;-51
2021/01/24 12:35:17;;;;;;;8.18;4.63;;;9.90;83.40;;;;;;4959925;28;20035;-53
2021/01/24 12:37:43;;;;;;;6.38;4.55;;;9.90;82.80;;;;;;4964574;28;20164;-51
2021/01/24 12:40:09;;;;;;;6.30;4.37;;;9.90;83.60;;;;;;4962530;28;20074;-51
2021/01/24 12:42:35;;;;;;;7.00;4.77;;;10.10;82.80;;;;;;4960050;28;20055;-54
2021/01/24 12:45:01;;;;;;;5.33;4.80;;;10.10;80.10;;;;;;4957932;28;20038;-53
2021/01/24 12:47:27;;;;;;;8.23;5.57;;;10.10;83.30;;;;;;4958435;28;20047;-49
2021/01/24 12:49:53;;;;;;;7.07;5.20;;;10.20;83.00;;;;;;4959550;28;20420;-50
2021/01/24 12:52:19;;;;;;;6.87;4.47;;;10.10;82.80;;;;;;4962635;28;20038;-52
2021/01/24 12:54:44;;;;;;;7.83;5.70;;;10.10;82.70;;;;;;4961948;28;20038;-50
2021/01/24 12:57:10;;;;;;;6.90;6.23;;;10.00;83.30;;;;;;4965031;28;20391;-54
2021/01/24 12:59:35;;;;;;;5.93;5.33;;;9.80;82.70;;;;;;4976576;28;20070;-53
2021/01/24 13:02:04;;;;;;;5.63;5.03;;;9.70;84.10;;;;;;4959678;28;20066;-51
2021/01/24 13:04:33;;;;;;;9.23;6.50;;;9.70;83.20;;;;;;4954668;28;20677;-52
2021/01/24 13:06:59;;;;;;;7.87;5.70;;;9.70;82.70;;;;;;4961047;28;20034;-50
2021/01/24 13:09:25;;;;;;;6.77;5.67;;;9.60;83.40;;;;;;4956723;28;20092;-52
2021/01/24 13:11:51;;;;;;;5.97;4.73;;;9.60;82.60;;;;;;4957448;28;20348;-50
2021/01/24 13:14:17;;;;;;;6.18;5.22;;;9.70;83.40;;;;;;4961080;28;20377;-49
2021/01/24 13:16:43;;;;;;;5.80;5.20;;;9.70;82.90;;;;;;4951179;28;20419;-54
2021/01/24 13:19:08;;;;;;;7.53;4.70;;;9.70;81.60;;;;;;4974550;28;20043;-52
2021/01/24 13:21:35;;;;;;;8.47;4.93;;;9.70;80.60;;;;;;4954863;28;20047;-55
2021/01/24 13:24:01;;;;;;;4.30;3.90;;;9.80;78.30;;;;;;4959419;28;20035;-53
2021/01/24 13:26:27;;;;;;;5.43;3.63;;;9.90;78.00;;;;;;4959405;28;20050;-56
2021/01/24 13:28:54;;;;;;;4.37;3.53;;;10.00;74.60;;;;;;4961193;28;20088;-52
2021/01/24 13:31:21;;;;;;;5.07;3.67;;;10.10;69.30;;;;;;4956059;28;20053;-57
2021/01/24 13:33:48;;;;;;;3.03;2.80;;;10.20;75.30;;;;;;4976238;28;20039;-53
2021/01/24 13:36:14;;;;;;;2.57;2.13;;;10.30;69.70;;;;;;4958784;28;20085;-55
2021/01/24 13:38:40;;;;;;;0.70;0.63;;;10.50;65.50;;;;;;4957798;28;20122;-51
2021/01/24 13:41:06;;;;;;;0.57;0.57;;;10.60;45.20;;;;;;4955509;28;20391;-55
2021/01/24 13:43:32;;;;;;;0.97;0.20;;;10.80;44.30;;;;;;4972853;28;20047;-54
2021/01/24 13:46:01;;;;;;;0.30;0.10;;;10.80;47.50;;;;;;4956349;28;20713;-53
2021/01/24 13:48:27;;;;;;;1.27;0.20;;;10.80;35.70;;;;;;4958407;28;20039;-52
2021/01/24 13:50:54;;;;;;;0.68;0.30;;;10.80;35.10;;;;;;4957991;28;20030;-54
2021/01/24 13:53:20;;;;;;;0.30;0.17;;;10.70;39.20;;;;;;4956145;28;20042;-51
2021/01/24 13:55:46;;;;;;;0.75;0.10;;;10.60;35.30;;;;;;4959793;28;20061;-50
2021/01/24 13:58:12;;;;;;;0.10;0.00;;;10.50;29.50;;;;;;4964143;28;20118;-54
2021/01/24 14:00:38;;;;;;;0.43;0.13;;;10.40;35.00;;;;;;4956808;28;20085;-52
2021/01/24 14:03:04;;;;;;;0.10;0.03;;;10.50;29.90;;;;;;4956362;28;20141;-55
2021/01/24 14:05:30;;;;;;;0.43;0.17;;;10.50;30.40;;;;;;4957384;28;20046;-53
2021/01/24 14:07:55;;;;;;;0.20;0.10;;;10.40;30.30;;;;;;4953647;28;20042;-54
2021/01/24 14:10:21;;;;;;;0.22;0.20;;;10.30;33.20;;;;;;4958871;28;20655;-55
2021/01/24 14:12:46;;;;;;;0.93;0.22;;;10.40;24.30;;;;;;4956690;28;20389;-54
2021/01/24 14:15:13;;;;;;;0.20;0.10;;;10.50;26.90;;;;;;4960405;28;20495;-53
2021/01/24 14:17:39;;;;;;;0.23;0.10;;;10.50;24.10;;;;;;4954316;28;20039;-53
2021/01/24 14:20:06;;;;;;;0.15;0.10;;;10.60;24.00;;;;;;4956340;28;20559;-52
2021/01/24 14:22:32;;;;;;;0.85;0.30;;;10.60;25.30;;;;;;4953379;28;20195;-56
2021/01/24 14:24:58;;;;;;;0.77;0.15;;;10.50;24.10;;;;;;4960741;28;20130;-53
2021/01/24 14:27:24;;;;;;;0.08;0.03;;;10.50;29.10;;;;;;4943940;28;20078;-53
2021/01/24 14:29:50;;;;;;;0.17;0.10;;;10.50;28.60;;;;;;4952153;28;20126;-53
2021/01/24 14:32:16;;;;;;;1.75;0.30;;;10.50;29.20;;;;;;4963127;28;20055;-52
2021/01/24 14:34:42;;;;;;;0.15;0.10;;;10.40;28.10;;;;;;4955422;28;20104;-55
2021/01/24 14:37:08;;;;;;;0.47;0.00;;;10.40;28.00;;;;;;4947052;28;20057;-52
2021/01/24 14:39:33;;;;;;;1.80;0.20;;;10.40;29.90;;;;;;4954647;28;20495;-53
2021/01/24 14:41:59;;;;;;;0.20;0.05;;;10.30;30.30;;;;;;4963324;28;20062;-50
2021/01/24 14:44:25;;;;;;;0.23;0.20;;;10.30;33.70;;;;;;4958549;28;20372;-54
2021/01/24 14:46:53;;;;;;;0.30;0.10;;;10.40;26.90;;;;;;4960989;28;20525;-54
2021/01/24 14:49:19;;;;;;;0.17;0.10;;;10.40;30.00;;;;;;4953741;28;20042;-52
2021/01/24 14:51:45;;;;;;;0.13;0.13;;;10.30;30.70;;;;;;4951250;28;20053;-50
2021/01/24 14:54:11;;;;;;;0.20;0.17;;;10.30;29.40;;;;;;4923196;28;20031;-51
2021/01/24 14:56:36;;;;;;;0.20;0.10;;;10.30;26.60;;;;;;4963718;28;20042;-52
2021/01/24 14:59:02;;;;;;;0.47;0.20;;;10.30;25.10;;;;;;4951620;28;20066;-50
2021/01/24 15:01:28;;;;;;;0.98;0.10;;;10.30;26.30;;;;;;4972100;28;20043;-49
2021/01/24 15:03:54;;;;;;;0.13;0.03;;;10.30;27.30;;;;;;4958375;28;20050;-53
2021/01/24 15:06:20;;;;;;;0.30;0.20;;;10.40;22.80;;;;;;4960150;28;20510;-52
2021/01/24 15:08:45;;;;;;;0.47;0.25;;;10.30;26.10;;;;;;4962426;28;20121;-58
2021/01/24 15:11:11;;;;;;;0.38;0.20;;;10.30;31.60;;;;;;4957463;28;20039;-49
2021/01/24 15:13:37;;;;;;;0.52;0.10;;;10.30;25.40;;;;;;4969658;28;20034;-50
2021/01/24 15:16:03;;;;;;;0.40;0.30;;;10.30;21.90;;;;;;4961847;28;20031;-50
2021/01/24 15:18:28;;;;;;;0.25;0.25;;;10.40;26.10;;;;;;4968593;28;20034;-49
2021/01/24 15:20:54;;;;;;;0.40;0.15;;;10.30;22.80;;;;;;4953467;28;20050;-51
2021/01/24 15:23:20;;;;;;;0.70;0.50;;;10.30;28.20;;;;;;4965100;28;20049;-50
2021/01/24 15:25:46;;;;;;;5.47;2.42;;;10.20;34.40;;;;;;4955578;28;20471;-60
2021/01/24 15:28:12;;;;;;;4.28;3.60;;;10.10;38.50;;;;;;4956104;28;20123;-50
2021/01/24 15:30:39;;;;;;;4.60;3.28;;;10.10;42.90;;;;;;4968054;28;20466;-52
2021/01/24 15:33:05;;;;;;;4.30;3.63;;;10.00;46.00;;;;;;4969786;28;20166;-49
2021/01/24 15:35:31;;;;;;;5.60;3.97;;;10.00;48.40;;;;;;4974640;27;20046;-53
2021/01/24 15:37:56;;;;;;;5.30;4.38;;;10.00;51.40;;;;;;4967892;28;20061;-50
2021/01/24 15:40:22;;;;;;;4.90;4.00;;;9.90;53.30;;;;;;4962745;28;20061;-51
2021/01/24 15:42:48;;;;;;;7.57;3.88;;;9.80;53.20;;;;;;4961607;28;20055;-52
2021/01/24 15:45:13;;;;;;;7.15;5.00;;;9.80;55.00;;;;;;4962107;28;20042;-51
2021/01/24 15:47:39;;;;;;;5.35;4.70;;;9.70;55.80;;;;;;4953197;28;20399;-49
2021/01/24 15:50:06;;;;;;;8.13;5.10;;;9.70;56.70;;;;;;4961247;28;20046;-53
2021/01/24 15:52:32;;;;;;;6.00;5.32;;;9.60;58.70;;;;;;4958994;28;20357;-53
2021/01/24 15:54:57;;;;;;;6.75;5.70;;;9.60;60.30;;;;;;4960725;28;20039;-54
2021/01/24 15:57:23;;;;;;;9.30;6.00;;;9.50;60.70;;;;;;4959582;28;20407;-52
2021/01/24 15:59:49;;;;;;;7.17;6.00;;;9.60;61.60;;;;;;4959039;28;20602;-52
2021/01/24 16:02:15;;;;;;;7.95;6.30;;;9.60;60.90;;;;;;4961487;28;20124;-53
2021/01/24 16:04:41;;;;;;;8.77;6.68;;;9.60;61.10;;;;;;4960493;28;20035;-54
2021/01/24 16:07:06;;;;;;;6.63;5.93;;;9.60;62.50;;;;;;4960080;28;20042;-53
2021/01/24 16:09:33;;;;;;;9.23;5.57;;;9.60;62.30;;;;;;4962884;28;20039;-50
2021/01/24 16:12:02;;;;;;;7.93;6.00;;;9.50;64.80;;;;;;4955702;28;20057;-53
2021/01/24 16:14:28;;;;;;;7.73;5.73;;;9.50;63.60;;;;;;4954944;28;20044;-53
2021/01/24 16:16:55;;;;;;;8.57;5.97;;;9.50;63.10;;;;;;4964279;28;20031;-55
2021/01/24 16:19:21;;;;;;;6.57;5.33;;;9.50;64.00;;;;;;4956049;28;20044;-54
2021/01/24 16:21:47;;;;;;;7.70;5.40;;;9.50;63.00;;;;;;4959646;28;20355;-55
2021/01/24 16:24:12;;;;;;;7.60;5.53;;;9.50;63.80;;;;;;4960539;28;20039;-54
2021/01/24 16:26:38;;;;;;;8.57;5.70;;;9.40;65.80;;;;;;4960765;28;20037;-58
2021/01/24 16:29:04;;;;;;;10.40;7.13;;;9.40;65.60;;;;;;4958966;28;20042;-56
2021/01/24 16:31:29;;;;;;;6.10;5.10;;;9.40;66.10;;;;;;4975278;28;20425;-56
2021/01/24 16:33:55;;;;;;;6.83;5.10;;;9.40;65.80;;;;;;4956050;28;20047;-57
2021/01/24 16:36:21;;;;;;;8.90;6.40;;;9.30;66.10;;;;;;4962494;28;20043;-57
2021/01/24 16:38:47;;;;;;;7.07;5.17;;;9.30;66.90;;;;;;4953412;28;20035;-57
2021/01/24 16:41:12;;;;;;;5.63;5.00;;;9.20;65.50;;;;;;4961641;28;20039;-57
2021/01/24 16:43:38;;;;;;;5.53;5.03;;;9.20;65.30;;;;;;4956676;28;20118;-57
2021/01/24 16:46:04;;;;;;;6.97;5.63;;;9.20;65.80;;;;;;4960962;28;20035;-57
2021/01/24 16:48:30;;;;;;;6.47;4.83;;;9.20;67.00;;;;;;4959713;28;20496;-57
2021/01/24 16:50:56;;;;;;;8.93;5.63;;;9.20;66.40;;;;;;4958655;28;20038;-58
2021/01/24 16:53:21;;;;;;;6.30;5.03;;;9.10;66.70;;;;;;4958827;28;20503;-57
2021/01/24 16:55:47;;;;;;;7.23;5.77;;;9.10;65.60;;;;;;4958343;28;20039;-59
2021/01/24 16:58:14;;;;;;;8.17;6.20;;;9.10;66.90;;;;;;4967609;28;20042;-58
2021/01/24 17:00:40;;;;;;;6.93;5.70;;;9.10;67.80;;;;;;4956888;28;20043;-49
2021/01/24 17:03:08;;;;;;;6.67;5.93;;;9.10;68.50;;;;;;4953471;28;20145;-51
2021/01/24 17:05:35;;;;;;;9.57;5.90;;;9.20;68.60;;;;;;4957888;28;20073;-49
2021/01/24 17:08:01;;;;;;;6.37;5.00;;;9.10;68.40;;;;;;4959359;28;20034;-54
2021/01/24 17:10:27;;;;;;;6.47;4.90;;;9.10;68.10;;;;;;4954543;28;20427;-51
2021/01/24 17:12:53;;;;;;;6.20;5.03;;;9.10;66.00;;;;;;4964526;28;20072;-48
2021/01/24 17:15:19;;;;;;;6.77;5.37;;;9.10;66.90;;;;;;4955292;28;20097;-48
2021/01/24 17:17:45;;;;;;;7.63;5.53;;;9.10;68.50;;;;;;4964410;28;20050;-48
2021/01/24 17:20:12;;;;;;;6.47;5.10;;;9.00;67.00;;;;;;4967607;28;20502;-49
2021/01/24 17:22:38;;;;;;;7.97;5.50;;;9.00;68.40;;;;;;4959601;28;20153;-52
2021/01/24 17:25:05;;;;;;;11.07;8.20;;;9.00;68.90;;;;;;4957810;28;20043;-53
2021/01/24 17:27:31;;;;;;;10.70;8.13;;;9.00;69.30;;;;;;4958380;28;20052;-52
2021/01/24 17:29:57;;;;;;;9.23;7.20;;;8.90;70.00;;;;;;4953821;28;20065;-51
2021/01/24 17:32:23;;;;;;;10.10;7.67;;;8.90;70.50;;;;;;4958836;28;20074;-50
2021/01/24 17:34:49;;;;;;;10.23;6.97;;;8.90;71.40;;;;;;4958897;28;20043;-48
2021/01/24 17:37:15;;;;;;;12.00;7.60;;;8.90;70.20;;;;;;4959033;28;20431;-52
2021/01/24 17:39:40;;;;;;;10.10;7.70;;;8.90;70.90;;;;;;4970746;28;20047;-52
2021/01/24 17:42:07;;;;;;;10.20;7.93;;;8.80;71.90;;;;;;4954292;28;20051;-50
2021/01/24 17:44:32;;;;;;;10.93;9.10;;;8.80;71.20;;;;;;4965466;28;20492;-53
2021/01/24 17:46:58;;;;;;;11.97;9.67;;;8.80;72.10;;;;;;4965681;28;20097;-53
2021/01/24 17:49:24;;;;;;;11.40;9.00;;;8.70;72.20;;;;;;4957587;28;20069;-53
2021/01/24 17:51:49;;;;;;;13.87;9.47;;;8.70;71.80;;;;;;4949691;28;20046;-53
2021/01/24 17:54:15;;;;;;;12.13;10.10;;;8.70;72.40;;;;;;4962633;28;20043;-52
2021/01/24 17:56:41;;;;;;;14.90;11.23;;;8.70;73.60;;;;;;4956542;28;20085;-50
2021/01/24 17:59:06;;;;;;;12.10;10.30;;;8.60;74.50;;;;;;4956089;28;20054;-53
2021/01/24 18:01:32;;;;;;;14.33;11.50;;;8.70;74.30;;;;;;4959606;28;20139;-49
2021/01/24 18:03:58;;;;;;;17.80;13.50;;;8.60;75.00;;;;;;4956894;28;20138;-49
2021/01/24 18:06:23;;;;;;;16.60;13.67;;;8.60;75.80;;;;;;4961501;28;20035;-53
2021/01/24 18:08:49;;;;;;;17.50;14.10;;;8.60;75.90;;;;;;4964661;28;20148;-51
2021/01/24 18:11:15;;;;;;;17.47;15.57;;;8.60;76.00;;;;;;4961818;28;20097;-50
2021/01/24 18:13:40;;;;;;;21.60;15.50;;;8.50;76.90;;;;;;4964806;28;20031;-53
2021/01/24 18:16:07;;;;;;;19.47;16.90;;;8.40;77.00;;;;;;4967349;28;21726;-51
2021/01/24 18:18:42;;;;;;;23.73;16.53;;;8.50;78.30;;;;;;4952641;28;20514;-51
2021/01/24 18:21:09;;;;;;;20.27;17.97;;;8.50;78.00;;;;;;4964566;28;20078;-50
2021/01/24 18:23:35;;;;;;;21.40;17.50;;;8.40;78.20;;;;;;4973686;28;20454;-50
2021/01/24 18:26:02;;;;;;;21.27;17.73;;;8.40;78.50;;;;;;4959714;28;20460;-55
2021/01/24 18:28:27;;;;;;;22.80;17.63;;;8.40;78.90;;;;;;4961726;28;20110;-49
2021/01/24 18:30:53;;;;;;;22.77;18.63;;;8.40;78.30;;;;;;4962947;28;20115;-52
2021/01/24 18:33:19;;;;;;;21.43;18.00;;;8.40;79.40;;;;;;4960837;28;20492;-50
2021/01/24 18:35:45;;;;;;;20.50;17.07;;;8.40;78.90;;;;;;4964823;28;20074;-53
2021/01/24 18:38:12;;;;;;;21.40;18.17;;;8.40;78.90;;;;;;4956216;28;20478;-55
2021/01/24 18:40:39;;;;;;;23.50;18.07;;;8.40;79.20;;;;;;4961929;28;20488;-54
2021/01/24 18:43:05;;;;;;;25.40;19.53;;;8.40;79.80;;;;;;4954380;28;20130;-55
2021/01/24 18:45:30;;;;;;;27.93;20.90;;;8.40;79.70;;;;;;4966392;28;20491;-53
2021/01/24 18:47:56;;;;;;;28.60;20.30;;;8.40;80.00;;;;;;4956039;28;20173;-53
2021/01/24 18:50:23;;;;;;;24.80;19.40;;;8.30;79.60;;;;;;4957594;28;20035;-54
2021/01/24 18:52:49;;;;;;;29.93;20.97;;;8.40;80.40;;;;;;4963926;28;20069;-52
2021/01/24 18:55:16;;;;;;;24.40;20.20;;;8.30;80.50;;;;;;4961473;28;20046;-53
2021/01/24 18:57:41;;;;;;;24.67;20.10;;;8.30;79.90;;;;;;4965908;28;20120;-54
2021/01/24 19:00:08;;;;;;;26.90;20.60;;;8.30;80.00;;;;;;4952602;28;20141;-53
2021/01/24 19:02:33;;;;;;;26.07;21.53;;;8.30;80.50;;;;;;4959886;28;20042;-49
2021/01/24 19:04:59;;;;;;;27.43;22.57;;;8.30;80.20;;;;;;4957844;28;20518;-50
2021/01/24 19:07:25;;;;;;;30.17;22.60;;;8.30;80.30;;;;;;4961651;28;20043;-49
2021/01/24 19:09:50;;;;;;;30.20;23.00;;;8.30;80.50;;;;;;4961920;28;20050;-51
2021/01/24 19:12:16;;;;;;;27.50;21.50;;;8.20;80.20;;;;;;4968285;28;20042;-54
2021/01/24 19:14:42;;;;;;;28.97;23.07;;;8.20;80.20;;;;;;4961604;28;20039;-50
2021/01/24 19:17:07;;;;;;;29.37;24.13;;;8.20;80.70;;;;;;4961191;28;20411;-50
2021/01/24 19:19:35;;;;;;;30.63;24.43;;;8.20;80.80;;;;;;4965240;28;20551;-50
2021/01/24 19:22:00;;;;;;;27.27;21.03;;;8.10;80.50;;;;;;4962365;28;20583;-52
2021/01/24 19:24:26;;;;;;;31.53;23.10;;;8.10;80.30;;;;;;4967517;27;20047;-51
2021/01/24 19:26:52;;;;;;;30.63;21.97;;;8.10;80.50;;;;;;4961195;28;20042;-50
2021/01/24 19:29:19;;;;;;;30.50;22.60;;;8.10;79.80;;;;;;4955638;28;20352;-54
2021/01/24 19:31:45;;;;;;;29.80;20.90;;;8.20;79.80;;;;;;4962707;28;20047;-53
2021/01/24 19:34:10;;;;;;;29.97;20.93;;;8.10;78.10;;;;;;4958686;28;20510;-51
2021/01/24 19:36:37;;;;;;;25.23;19.73;;;8.20;79.50;;;;;;4957825;28;20046;-51
2021/01/24 19:39:04;;;;;;;26.17;18.00;;;8.20;79.10;;;;;;4961528;28;20071;-53
2021/01/24 19:41:30;;;;;;;24.43;18.47;;;8.10;75.90;;;;;;4958542;28;20071;-52
2021/01/24 19:43:56;;;;;;;26.77;19.43;;;8.20;77.40;;;;;;4962471;28;20555;-51
2021/01/24 19:46:22;;;;;;;25.70;19.03;;;8.20;77.30;;;;;;4952279;28;20043;-51
2021/01/24 19:48:48;;;;;;;24.90;19.23;;;8.10;77.20;;;;;;4960746;28;20058;-52
2021/01/24 19:51:14;;;;;;;25.27;20.03;;;8.20;77.20;;;;;;4957568;28;20055;-54
2021/01/24 19:53:42;;;;;;;24.93;20.33;;;8.10;76.30;;;;;;4957357;28;20035;-53
2021/01/24 19:56:08;;;;;;;27.77;22.03;;;8.10;76.30;;;;;;4955351;28;20054;-54
2021/01/24 19:58:34;;;;;;;24.17;19.00;;;8.10;77.20;;;;;;4958407;28;20414;-52
2021/01/24 20:01:00;;;;;;;23.90;18.47;;;8.10;77.10;;;;;;4955427;28;20847;-52
2021/01/24 20:03:26;;;;;;;24.07;19.07;;;8.10;76.60;;;;;;4963383;28;20070;-53
2021/01/24 20:05:52;;;;;;;25.20;18.60;;;8.00;77.20;;;;;;4977616;28;20066;-52
2021/01/24 20:08:18;;;;;;;25.27;19.60;;;8.00;77.50;;;;;;4963402;28;20093;-57
2021/01/24 20:10:44;;;;;;;26.17;19.43;;;8.00;77.40;;;;;;4957789;28;20582;-49
2021/01/24 20:13:09;;;;;;;26.67;19.60;;;8.00;77.70;;;;;;4950534;28;20126;-50
2021/01/24 20:15:39;;;;;;;26.67;19.47;;;8.00;78.10;;;;;;4971619;28;20043;-50
2021/01/24 20:18:05;;;;;;;25.40;19.87;;;8.00;76.90;;;;;;4962066;28;20050;-48
2021/01/24 20:20:31;;;;;;;25.47;19.33;;;8.00;77.60;;;;;;4962721;28;20142;-51